»·PEaware :: N4922Z KSAN-KNSI

N4922Z :: KSAN-KNSI

FLIGHT INFORMATION

Flight Status: Arrived
Operator: Privately registered:
United States
More flights under this callsign
Pilot: William N. (15320)
Aircraft: MITSUBISHI MU-2 MARQUISE
(MU2)
More flights by this aircraft type
Origin: KSAN San Diego Intl-Lindbergh
United States
Destination: KNSI San Nicolas I NOLF
United States
More flights between these airports :: More routes between these airports
Route: DIRECT
File this flight plan on PilotEdge
Remarks:
Altitude:
(Current/Filed)
4,500ft
Speed:
(Current/Filed)
275kts
Departed: 04-May-18 03:20 PM
Arrived: 04-May-18 03:55 PM
Distance/Time
Traveled:
118nm/0:35
Distance/Time
To Go:
Arrived

Flight Plot

Page will automatically refresh every two minutes.

Flight plan parsing failed; only flown route is shown


Map Options




Map Legend


Flown Route
Filed Route
Departure Airport
Arrival Airport
Navaid (VOR, NDB)
Fix

Horizontal Profiles

Position Reports

Time Latitude Longitude Heading Altitude Ground
Speed
04-May-18 15:03 32.732063 -117.193350 287 16ft 0kts
04-May-18 15:04 32.732063 -117.193350 287 16ft 0kts
04-May-18 15:05 32.732063 -117.193350 287 16ft 0kts
04-May-18 15:06 32.732063 -117.193350 287 16ft 0kts
04-May-18 15:07 32.732063 -117.193350 287 16ft 0kts
04-May-18 15:08 32.732063 -117.193350 287 16ft 0kts
04-May-18 15:09 32.732063 -117.193350 287 16ft 0kts
04-May-18 15:10 32.732063 -117.193350 287 16ft 0kts
04-May-18 15:11 32.732063 -117.193350 286 16ft 0kts
04-May-18 15:12 32.732063 -117.193350 286 16ft 0kts
04-May-18 15:13 32.732063 -117.193350 286 16ft 0kts
04-May-18 15:14 32.732422 -117.193357 25 16ft 8kts
04-May-18 15:15 32.732006 -117.187508 107 17ft 30kts
04-May-18 15:16 32.730159 -117.179914 106 15ft 17kts
04-May-18 15:17 32.729522 -117.176621 68 18ft 0kts
04-May-18 15:18 32.729522 -117.176621 68 18ft 0kts
04-May-18 15:19 32.731156 -117.179621 288 16ft 93kts
04-May-18 15:20 32.746295 -117.223791 300 1708ft 168kts
04-May-18 15:21 32.769305 -117.273857 301 3937ft 180kts
04-May-18 15:22 32.798259 -117.335422 301 4485ft 252kts
04-May-18 15:23 32.831262 -117.411067 295 4451ft 249kts
04-May-18 15:24 32.854888 -117.484622 289 4467ft 240kts
04-May-18 15:25 32.873710 -117.564653 285 4477ft 259kts
04-May-18 15:26 32.894972 -117.647574 286 4475ft 264kts
04-May-18 15:27 32.916520 -117.731244 286 4476ft 266kts
04-May-18 15:28 32.938606 -117.814954 286 4409ft 261kts
04-May-18 15:29 32.959243 -117.894803 281 4404ft 246kts
04-May-18 15:30 32.970715 -117.974193 282 4455ft 241kts
04-May-18 15:31 32.987900 -118.052013 284 4485ft 245kts
04-May-18 15:32 33.004671 -118.121983 284 6050ft 197kts
04-May-18 15:33 33.016417 -118.170546 284 6482ft 212kts
04-May-18 15:34 33.025834 -118.209423 286 6480ft 228kts
04-May-18 15:35 33.044657 -118.286984 286 6295ft 255kts
04-May-18 15:36 33.064819 -118.370577 286 6292ft 267kts
04-May-18 15:37 33.085623 -118.456623 286 6292ft 271kts
04-May-18 15:38 33.106106 -118.540782 288 6290ft 272kts
04-May-18 15:39 33.110950 -118.629912 269 6291ft 270kts
04-May-18 15:40 33.109963 -118.716496 269 6277ft 243kts
04-May-18 15:41 33.109244 -118.792899 269 5694ft 220kts
04-May-18 15:42 33.108617 -118.863953 269 5094ft 211kts
04-May-18 15:43 33.107943 -118.933275 269 4466ft 207kts
04-May-18 15:44 33.107433 -119.002011 269 3845ft 208kts
04-May-18 15:45 33.106859 -119.071798 269 3276ft 211kts
04-May-18 15:46 33.106286 -119.141567 269 2798ft 208kts
04-May-18 15:47 33.105754 -119.207063 269 2747ft 185kts
04-May-18 15:48 33.105348 -119.264580 269 2513ft 161kts
04-May-18 15:49 33.124309 -119.308665 312 2112ft 154kts
04-May-18 15:50 33.152647 -119.345461 312 2105ft 151kts
04-May-18 15:51 33.181392 -119.382323 311 1529ft 141kts
04-May-18 15:52 33.206725 -119.415087 313 1021ft 140kts
04-May-18 15:54 33.229170 -119.444645 313 561ft 111kts
04-May-18 15:55 33.238476 -119.457898 225 504ft 0kts
04-May-18 15:56 33.238665 -119.459379 313 508ft 14kts
04-May-18 15:57 33.240913 -119.463528 312 506ft 0kts
04-May-18 15:58 33.240913 -119.463528 312 506ft 0kts
04-May-18 15:59 33.240946 -119.463569 313 506ft 0kts
04-May-18 16:00 33.240946 -119.463569 313 506ft 0kts
04-May-18 16:01 33.240946 -119.463569 313 506ft 0kts
04-May-18 16:02 33.240946 -119.463569 313 506ft 0kts
04-May-18 16:03 33.240946 -119.463569 313 506ft 0kts
04-May-18 16:04 33.240946 -119.463569 313 506ft 0kts
04-May-18 16:05 33.240946 -119.463569 313 506ft 0kts
04-May-18 16:06 33.240946 -119.463569 313 506ft 0kts
04-May-18 16:07 33.240946 -119.463569 313 506ft 0kts
04-May-18 16:08 33.240946 -119.463569 313 506ft 0kts
04-May-18 16:09 33.240946 -119.463569 313 506ft 0kts

Navigation Log

Ident Type
Flight plan parsing failed, navigation log unavailable